| time (UTC) | temp C | wind direction | speed KPH | gust KPH | rain 1hr cm | rain 24hr cm | rain mn cm | humidity % | barometer mb |
| 20260507094512 | 7 | 6.4 | 11.3 | 0.00 | 0.00 | 0.00 | 57 | 1010.1 | |
| 20260507093017 | 7 | 3.2 | 11.3 | 0.00 | 0.00 | 0.00 | 54 | 1010.1 | |
| 20260507091510 | 8 | 3.2 | 6.4 | 0.00 | 0.00 | 0.00 | 54 | 1010.1 | |
| 20260507090016 | 8 | 3.2 | 4.8 | 0.00 | 0.00 | 0.00 | 54 | 1010.3 | |
| 20260507084509 | 7 | 3.2 | 8.0 | 0.00 | 0.00 | 0.00 | 54 | 1010.4 | |
| 20260507083008 | 7 | 4.8 | 8.0 | 0.00 | 0.00 | 0.00 | 56 | 1010.6 | |
| 20260507081518 | 6 | 6.4 | 8.0 | 0.00 | 0.00 | 0.00 | 58 | 1010.8 | |
| 20260507080006 | 6 | 6.4 | 11.3 | 0.00 | 0.00 | 0.00 | 58 | 1010.9 | |
| 20260507074504 | 7 | 8.0 | 11.3 | 0.00 | 0.00 | 0.00 | 57 | 1010.8 | |
| 20260507073001 | 7 | 8.0 | 14.5 | 0.00 | 0.00 | 0.00 | 56 | 1010.7 | |
| 20260507071559 | 8 | 4.8 | 9.7 | 0.00 | 0.00 | 0.00 | 52 | 1010.5 | |
| 20260507070101 | 8 | 4.8 | 8.0 | 0.00 | 0.00 | 0.00 | 50 | 1010.4 | |
| 20260507064554 | 8 | 4.8 | 8.0 | 0.00 | 0.00 | 0.00 | 51 | 1010.2 | |
| 20260507063052 | 8 | 0.0 | 4.8 | 0.00 | 0.00 | 0.00 | 52 | 1009.7 | |
| 20260507061548 | 8 | 1.6 | 3.2 | 0.00 | 0.00 | 0.00 | 53 | 1009.7 | |
| 20260507060056 | 7 | 1.6 | 4.8 | 0.00 | 0.00 | 0.00 | 53 | 1009.7 | |
| 20260507054549 | 7 | 0.0 | 4.8 | 0.00 | 0.00 | 0.00 | 53 | 1009.4 | |
| 20260507053051 | 7 | 3.2 | 4.8 | 0.00 | 0.00 | 0.00 | 51 | 1009.3 | |
| 20260507051542 | 8 | 1.6 | 3.2 | 0.00 | 0.00 | 0.00 | 51 | 1009.3 | |
| 20260507050042 | 8 | 1.6 | 4.8 | 0.00 | 0.00 | 0.00 | 51 | 1009.3 | |
| 20260507044554 | 8 | 0.0 | 1.6 | 0.00 | 0.00 | 0.00 | 49 | 1009.1 | |
| 20260507043041 | 9 | 1.6 | 6.4 | 0.00 | 0.00 | 0.00 | 47 | 1008.8 | |
| 20260507041540 | 10 | 1.6 | 9.7 | 0.00 | 0.00 | 0.00 | 46 | 1008.8 | |
| 20260507040040 | 10 | 6.4 | 11.3 | 0.00 | 0.00 | 0.00 | 45 | 1008.8 | |
| 20260507034543 | 11 | 4.8 | 14.5 | 0.00 | 0.00 | 0.00 | 43 | 1008.5 | |
| 20260507033038 | 12 | 8.0 | 14.5 | 0.00 | 0.00 | 0.00 | 41 | 1008.6 | |
| 20260507031538 | 13 | 6.4 | 11.3 | 0.00 | 0.00 | 0.00 | 39 | 1008.0 | |
| 20260507030038 | 13 | 6.4 | 14.5 | 0.00 | 0.00 | 0.00 | 37 | 1007.9 | |
| 20260507024541 | 14 | 8.0 | 16.1 | 0.00 | 0.00 | 0.00 | 36 | 1007.6 | |
| 20260507023036 | 15 | 8.0 | 12.9 | 0.00 | 0.00 | 0.00 | 34 | 1007.3 | |
| 20260507021536 | 16 | 8.0 | 17.7 | 0.00 | 0.00 | 0.00 | 33 | 1007.3 | |
| 20260507020045 | 16 | 8.0 | 16.1 | 0.00 | 0.00 | 0.00 | 32 | 1007.0 | |
| 20260507014537 | 17 | 8.0 | 22.5 | 0.00 | 0.00 | 0.00 | 30 | 1006.7 | |
| 20260507013035 | 18 | 8.0 | 14.5 | 0.00 | 0.00 | 0.00 | 28 | 1006.2 | |
| 20260507011534 | 20 | 4.8 | 11.3 | 0.00 | 0.00 | 0.00 | 25 | 1006.0 | |
| 20260507010034 | 21 | 6.4 | 14.5 | 0.00 | 0.00 | 0.00 | 23 | 1006.1 | |
| 20260507004533 | 20 | 6.4 | 14.5 | 0.00 | 0.00 | 0.00 | 24 | 1006.2 | |
| 20260507003032 | 20 | 3.2 | 11.3 | 0.00 | 0.00 | 0.00 | 24 | 1006.4 | |
| 20260507001535 | 20 | 6.4 | 12.9 | 0.00 | 0.00 | 0.00 | 23 | 1006.5 | |
| 20260507000026 | 21 | 3.2 | 11.3 | 0.00 | 0.00 | 0.00 | 23 | 1006.5 | |
| 20260506234525 | 22 | 6.4 | 16.1 | 0.00 | 0.00 | 0.00 | 21 | 1006.5 | |
| 20260506233022 | 22 | 6.4 | 17.7 | 0.00 | 0.00 | 0.00 | 20 | 1006.6 | |
| 20260506231519 | 22 | 9.7 | 14.5 | 0.00 | 0.00 | 0.00 | 20 | 1006.8 | |
| 20260506230017 | 22 | 4.8 | 14.5 | 0.00 | 0.00 | 0.00 | 21 | 1006.9 | |
| 20260506224516 | 22 | 8.0 | 17.7 | 0.00 | 0.00 | 0.00 | 20 | 1007.1 | |
| 20260506223014 | 22 | 8.0 | 16.1 | 0.00 | 0.00 | 0.00 | 19 | 1007.3 | |
| 20260506221511 | 21 | 4.8 | 12.9 | 0.00 | 0.00 | 0.00 | 21 | 1007.6 | |
| 20260506220010 | 21 | 6.4 | 12.9 | 0.00 | 0.00 | 0.00 | 21 | 1007.8 | |
| 20260506214508 | 21 | 3.2 | 12.9 | 0.00 | 0.00 | 0.00 | 20 | 1008.0 | |
| 20260506213010 | 22 | 1.6 | 19.3 | 0.00 | 0.00 | 0.00 | 19 | 1008.2 | |
| 20260506211503 | 22 | 11.3 | 22.5 | 0.00 | 0.00 | 0.00 | 20 | 1008.4 | |
| 20260506210001 | 21 | 4.8 | 14.5 | 0.00 | 0.00 | 0.00 | 20 | 1008.6 | |
| 20260506204624 | 21 | 6.4 | 20.9 | 0.00 | 0.00 | 0.00 | 20 | 1008.8 | |
| 20260506203056 | 21 | 3.2 | 14.5 | 0.00 | 0.00 | 0.00 | 20 | 1009.0 | |
| 20260506201553 | 21 | 8.0 | 24.1 | 0.00 | 0.00 | 0.00 | 20 | 1009.3 | |
| 20260506200052 | 21 | 12.9 | 24.1 | 0.00 | 0.00 | 0.00 | 20 | 1009.6 | |
| 20260506194601 | 21 | 1.6 | 16.1 | 0.00 | 0.00 | 0.00 | 22 | 1009.8 | |
| 20260506193049 | 20 | 1.6 | 14.5 | 0.00 | 0.00 | 0.00 | 20 | 1010.1 | |
| 20260506191543 | 20 | 0.0 | 11.3 | 0.00 | 0.00 | 0.00 | 22 | 1010.3 | |
| 20260506190043 | 19 | 4.8 | 9.7 | 0.00 | 0.00 | 0.00 | 24 | 1010.6 | |
| 20260506184537 | 18 | 0.0 | 11.3 | 0.00 | 0.00 | 0.00 | 24 | 1010.7 | |
| 20260506183034 | 18 | 3.2 | 12.9 | 0.00 | 0.00 | 0.00 | 32 | 1011.0 | |
| 20260506181534 | 17 | 6.4 | 14.5 | 0.00 | 0.00 | 0.00 | 34 | 1011.5 | |
| 20260506180029 | 16 | 4.8 | 12.9 | 0.00 | 0.00 | 0.00 | 33 | 1011.6 | |
| 20260506174523 | 15 | 4.8 | 12.9 | 0.00 | 0.00 | 0.00 | 34 | 1012.0 | |
| 20260506173018 | 15 | 3.2 | 11.3 | 0.00 | 0.00 | 0.00 | 35 | 1012.3 | |
| 20260506171515 | 14 | 4.8 | 12.9 | 0.00 | 0.00 | 0.00 | 38 | 1012.5 | |
| 20260506170015 | 13 | 4.8 | 12.9 | 0.00 | 0.00 | 0.00 | 39 | 1012.9 | |
| 20260506164508 | 12 | 3.2 | 12.9 | 0.00 | 0.00 | 0.00 | 41 | 1013.0 | |
| 20260506163003 | 11 | 3.2 | 11.3 | 0.00 | 0.00 | 0.00 | 42 | 1013.0 | |
| 20260506161607 | 11 | 3.2 | 8.0 | 0.00 | 0.00 | 0.00 | 45 | 1013.3 | |
| 20260506160055 | 10 | 1.6 | 9.7 | 0.00 | 0.00 | 0.00 | 46 | 1013.5 | |
| 20260506154608 | 9 | 4.8 | 11.3 | 0.00 | 0.00 | 0.00 | 47 | 1013.7 | |
| 20260506153046 | 8 | 4.8 | 12.9 | 0.00 | 0.00 | 0.00 | 50 | 1014.0 | |
| 20260506151542 | 7 | 6.4 | 14.5 | 0.00 | 0.00 | 0.00 | 51 | 1014.1 | |
| 20260506150039 | 7 | 4.8 | 9.7 | 0.00 | 0.00 | 0.00 | 53 | 1014.3 | |
| 20260506144537 | 6 | 3.2 | 9.7 | 0.00 | 0.00 | 0.00 | 57 | 1014.7 | |
| 20260506143032 | 5 | 4.8 | 9.7 | 0.00 | 0.00 | 0.00 | 58 | 1014.8 | |
| 20260506141526 | 3 | 4.8 | 9.7 | 0.00 | 0.00 | 0.00 | 63 | 1015.0 | |
| 20260506140027 | 2 | 3.2 | 4.8 | 0.00 | 0.00 | 0.00 | 66 | 1015.0 | |
| 20260506134518 | 2 | 1.6 | 8.0 | 0.00 | 0.00 | 0.00 | 68 | 1015.4 | |
| 20260506133033 | 1 | 3.2 | 6.4 | 0.00 | 0.00 | 0.00 | 71 | 1015.5 | |
| 20260506131515 | 0 | 1.6 | 3.2 | 0.00 | 0.00 | 0.00 | 71 | 1015.4 | |
| 20260506130009 | -1 | 1.6 | 6.4 | 0.00 | 0.00 | 0.00 | 71 | 1015.5 | |
| 20260506124502 | -1 | 0.0 | 0.0 | 0.00 | 0.00 | 0.00 | 70 | 1015.7 | |
| 20260506123003 | -3 | 0.0 | 0.0 | 0.00 | 0.00 | 0.00 | 76 | 1015.8 | |
| 20260506121559 | -3 | 0.0 | 3.2 | 0.00 | 0.00 | 0.00 | 75 | 1015.9 | |
| 20260506120059 | -2 | 0.0 | 0.0 | 0.00 | 0.00 | 0.00 | 72 | 1016.0 | |
| 20260506114602 | -3 | 0.0 | 0.0 | 0.00 | 0.00 | 0.00 | 72 | 1016.2 | |
| 20260506113100 | -3 | 0.0 | 0.0 | 0.00 | 0.00 | 0.00 | 72 | 1016.2 | |
| 20260506111604 | -3 | 0.0 | 0.0 | 0.00 | 0.00 | 0.00 | 73 | 1016.6 | |
| 20260506110053 | -3 | 0.0 | 0.0 | 0.00 | 0.00 | 0.00 | 73 | 1016.7 | |
| 20260506104556 | -3 | 0.0 | 0.0 | 0.00 | 0.00 | 0.00 | 72 | 1016.9 | |
| 20260506103056 | -3 | 0.0 | 0.0 | 0.00 | 0.00 | 0.00 | 71 | 1017.1 | |
| 20260506101550 | -3 | 0.0 | 0.0 | 0.00 | 0.00 | 0.00 | 70 | 1017.3 | |
| 20260506100042 | -3 | 0.0 | 0.0 | 0.00 | 0.00 | 0.00 | 70 | 1017.5 |